Buffalo, Minnesota
Current Conditions -  °F | °C
As of 2:34 PM on Monday 26 Jan 2015 (Local Time) from KCFE Reporting Station
Overcast Overcast  
Wind Chill: 35°   Ceiling: 3200
Heat Index: 41°   Visibility: 10mi
Dew Point: 32°   Wind: 12mph
Humidity: 69%   Direction: 280°W
Pressure: 29.77"   Gusts: 23mph
Location:  45.17°N, 93.88°W
Report Text: KCFE 262034Z AUTO 28010G20KT 10SM OVC032 05/00 A2977 RMK AO2 T00520000
Loading
Personal Weather Stations






























Interactive Weather Map New forecast layout! Learn more

10-Day Weather Forecast

Advertisements
Track Severe Weather on mobile